createdAt,value
2023-12-14T00:01:26.992Z,99644.38
2023-12-14T00:06:30.881Z,99656.47
2023-12-14T00:11:34.569Z,99660.16
2023-12-14T00:16:39.818Z,99653.75
2023-12-14T00:21:43.488Z,99663.38
2023-12-14T00:26:47.283Z,99660.41
2023-12-14T00:31:52.526Z,99653.28
2023-12-14T00:36:56.180Z,99652.19
2023-12-14T00:41:59.814Z,99651.31
2023-12-14T00:47:05.199Z,99657.25
2023-12-14T00:52:08.866Z,99647.75
2023-12-14T00:57:12.767Z,99645.31
2023-12-14T01:02:17.981Z,99641.59
2023-12-14T01:07:21.675Z,99646.22
2023-12-14T01:12:25.281Z,99652.69
2023-12-14T01:17:30.706Z,99643.22
2023-12-14T01:22:34.729Z,99644.81
2023-12-14T01:27:39.195Z,99636.81
2023-12-14T01:32:44.693Z,99640.59
2023-12-14T01:37:48.947Z,99640.31
2023-12-14T01:42:52.694Z,99645.41
2023-12-14T01:47:57.782Z,99656.41
2023-12-14T01:53:01.797Z,99639.59
2023-12-14T01:58:05.627Z,99643.44
2023-12-14T02:03:11.084Z,99644.72
2023-12-14T02:08:14.956Z,99641.63
2023-12-14T02:13:18.641Z,99636.88
2023-12-14T02:18:23.969Z,99636.25
2023-12-14T02:23:29.099Z,99644.06
2023-12-14T02:28:32.696Z,99640.09
2023-12-14T02:33:36.800Z,99642.69
2023-12-14T02:38:42.064Z,99644.72
2023-12-14T02:43:45.840Z,99640.97
2023-12-14T02:48:49.586Z,99643.91
2023-12-14T02:53:54.861Z,99638.53
2023-12-14T02:58:58.673Z,99639.56
2023-12-14T03:04:02.302Z,99650.47
2023-12-14T03:09:07.372Z,99653.63
2023-12-14T03:14:11.211Z,99637.25
2023-12-14T03:19:15.226Z,99634.50
2023-12-14T03:24:20.319Z,99653.47
2023-12-14T03:29:23.935Z,99646.22
2023-12-14T03:34:27.840Z,99643.41
2023-12-14T03:39:32.947Z,99642.97
2023-12-14T03:44:36.704Z,99638.09
2023-12-14T03:49:41.101Z,99637.72
2023-12-14T03:54:46.187Z,99632.91
2023-12-14T03:59:49.987Z,99645.16
2023-12-14T04:04:53.728Z,99643.66
2023-12-14T04:09:59.010Z,99637.38
2023-12-14T04:15:02.634Z,99637.72
2023-12-14T04:20:09.677Z,99632.63
2023-12-14T04:25:14.986Z,99626.66
2023-12-14T04:30:18.851Z,99643.38
2023-12-14T04:35:23.469Z,99640.09
2023-12-14T04:40:28.784Z,99636.53
2023-12-14T04:45:32.609Z,99645.84
2023-12-14T04:50:36.198Z,99645.16
2023-12-14T04:55:42.935Z,99645.94
2023-12-14T05:00:46.906Z,99647.16
2023-12-14T05:05:50.518Z,99636.16
2023-12-14T05:10:55.636Z,99638.31
2023-12-14T05:15:59.951Z,99637.97
2023-12-14T05:21:03.611Z,99649.31
2023-12-14T05:26:08.821Z,99642.50
2023-12-14T05:31:12.472Z,99645.66
2023-12-14T05:36:16.292Z,99640.59
2023-12-14T05:41:21.681Z,99646.31
2023-12-14T05:46:25.990Z,99637.72
2023-12-14T05:51:30.351Z,99641.38
2023-12-14T05:56:38.275Z,99634.97
2023-12-14T06:01:44.647Z,99645.19
2023-12-14T06:06:48.464Z,99647.53
2023-12-14T06:11:53.733Z,99642.69
2023-12-14T06:16:57.787Z,99642.06
2023-12-14T06:22:01.695Z,99643.59
2023-12-14T06:27:07.320Z,99641.34
2023-12-14T06:32:11.022Z,99644.38
2023-12-14T06:37:14.989Z,99644.66
2023-12-14T06:42:20.219Z,99652.19
2023-12-14T06:47:24.087Z,99654.84
2023-12-14T06:52:27.793Z,99649.13
2023-12-14T06:57:33.039Z,99645.13
2023-12-14T07:02:37.214Z,99652.16
2023-12-14T07:07:42.154Z,99654.41
2023-12-14T07:12:48.166Z,99655.19
2023-12-14T07:17:51.794Z,99651.59
2023-12-14T07:22:55.667Z,99643.13
2023-12-14T07:28:00.883Z,99660.81
2023-12-14T07:33:05.478Z,99653.69
2023-12-14T07:38:11.277Z,99665.66
2023-12-14T07:43:16.573Z,99662.56
2023-12-14T07:48:20.406Z,99680.97
2023-12-14T07:53:24.346Z,99680.84
2023-12-14T07:58:29.672Z,99683.97
2023-12-14T08:03:33.589Z,99669.88
2023-12-14T08:08:39.049Z,99677.59
2023-12-14T08:13:44.160Z,99687.81
2023-12-14T08:18:49.815Z,99698.19
2023-12-14T08:23:53.693Z,99687.38
2023-12-14T08:28:58.811Z,99692.41
2023-12-14T08:34:02.713Z,99683.75
2023-12-14T08:39:06.977Z,99674.94
2023-12-14T08:44:12.129Z,99685.09
2023-12-14T08:49:16.805Z,99680.94
2023-12-14T08:54:20.803Z,99690.75
2023-12-14T08:59:26.288Z,99693.28
2023-12-14T09:04:30.085Z,99685.38
2023-12-14T09:09:34.100Z,99672.56
2023-12-14T09:14:39.243Z,99674.19
2023-12-14T09:19:42.897Z,99656.97
2023-12-14T09:24:46.520Z,99669.16
2023-12-14T09:29:51.562Z,99650.66
2023-12-14T09:34:58.047Z,99662.22
2023-12-14T09:40:01.731Z,99667.63
2023-12-14T09:45:10.005Z,99678.31
2023-12-14T09:50:15.679Z,99689.00
2023-12-14T09:55:19.525Z,99694.81
2023-12-14T10:00:37.839Z,99700.97
2023-12-14T10:05:42.100Z,99702.22
2023-12-14T10:10:46.069Z,99703.34
2023-12-14T10:15:51.815Z,99702.97
2023-12-14T10:20:55.528Z,99681.09
2023-12-14T10:26:00.438Z,99689.00
2023-12-14T10:31:06.758Z,99685.50
2023-12-14T10:36:12.510Z,99684.63
2023-12-14T10:41:16.676Z,99689.03
2023-12-14T10:46:22.830Z,99678.81
2023-12-14T10:51:28.961Z,99672.91
2023-12-14T10:56:33.386Z,99663.78
2023-12-14T11:01:40.912Z,99652.94
2023-12-14T11:06:48.608Z,99656.47
2023-12-14T11:12:01.494Z,99645.25
2023-12-14T11:17:09.477Z,99635.69
2023-12-14T11:22:26.378Z,99626.91
2023-12-14T11:27:32.288Z,99620.47
2023-12-14T11:32:38.562Z,99617.22
2023-12-14T11:37:43.068Z,99608.16
2023-12-14T11:42:47.764Z,99623.56
2023-12-14T11:47:52.852Z,99626.50
2023-12-14T11:52:58.682Z,99620.34
2023-12-14T11:58:02.548Z,99628.28
2023-12-14T12:03:16.140Z,99644.00
2023-12-14T12:08:22.250Z,99655.81
2023-12-14T12:13:26.227Z,99639.84
2023-12-14T12:18:31.544Z,99641.63
2023-12-14T12:23:35.253Z,99649.53
2023-12-14T12:28:40.048Z,99648.91
2023-12-14T12:33:45.069Z,99650.91
2023-12-14T12:38:49.012Z,99655.81
2023-12-14T12:43:52.803Z,99651.81
2023-12-14T12:48:57.953Z,99648.41
2023-12-14T12:54:10.169Z,99657.97
2023-12-14T12:59:18.402Z,99659.09
2023-12-14T13:04:24.677Z,99672.31
2023-12-14T13:09:28.773Z,99660.72
2023-12-14T13:14:33.291Z,99666.75
2023-12-14T13:19:38.292Z,99660.38
2023-12-14T13:24:42.094Z,99655.56
2023-12-14T13:29:46.828Z,99662.75
2023-12-14T13:34:51.972Z,99643.41
2023-12-14T13:39:55.842Z,99643.91
2023-12-14T13:44:59.485Z,99639.00
2023-12-14T13:50:06.101Z,99635.31
2023-12-14T13:55:10.311Z,99631.31
2023-12-14T14:00:15.588Z,99636.84
2023-12-14T14:05:20.739Z,99620.91
2023-12-14T14:10:24.534Z,99618.78
2023-12-14T14:15:28.288Z,99601.41
2023-12-14T14:20:33.886Z,99617.13
2023-12-14T14:25:37.763Z,99618.88
2023-12-14T14:30:41.785Z,99602.41
2023-12-14T14:35:47.090Z,99611.56
2023-12-14T14:40:50.844Z,99609.94
2023-12-14T14:45:54.479Z,99608.31
2023-12-14T14:50:59.729Z,99598.25
2023-12-14T14:56:03.585Z,99593.84
2023-12-14T15:01:07.481Z,99586.78
2023-12-14T15:06:12.982Z,99578.00
2023-12-14T15:11:16.808Z,99568.31
2023-12-14T15:16:20.672Z,99557.16
2023-12-14T15:21:25.650Z,99553.75
2023-12-14T15:26:32.693Z,99551.13
2023-12-14T15:31:36.359Z,99543.25
2023-12-14T15:36:41.432Z,99538.44
2023-12-14T15:41:45.230Z,99534.31
2023-12-14T15:46:49.263Z,99546.38
2023-12-14T15:51:54.374Z,99528.28
2023-12-14T15:56:59.950Z,99512.16
2023-12-14T16:02:04.360Z,99495.50
2023-12-14T16:07:09.623Z,99507.19
2023-12-14T16:12:13.223Z,99504.44
2023-12-14T16:17:16.819Z,99493.72
2023-12-14T16:22:22.257Z,99482.44
2023-12-14T16:27:25.883Z,99489.22
2023-12-14T16:32:29.857Z,99486.44
2023-12-14T16:37:35.278Z,99464.75
2023-12-14T16:42:39.162Z,99452.56
2023-12-14T16:47:43.820Z,99454.31
2023-12-14T16:52:49.120Z,99431.41
2023-12-14T16:57:52.881Z,99468.59
2023-12-14T17:02:56.670Z,99454.94
2023-12-14T17:08:01.809Z,99460.69
2023-12-14T17:13:05.615Z,99437.97
2023-12-14T17:18:09.465Z,99454.75
2023-12-14T17:23:14.998Z,99433.50
2023-12-14T17:28:18.916Z,99404.56
2023-12-14T17:33:24.130Z,99414.06
2023-12-14T17:38:29.312Z,99402.44
2023-12-14T17:43:33.141Z,99400.16
2023-12-14T17:48:37.763Z,99376.09
2023-12-14T17:53:44.961Z,99370.72
2023-12-14T17:58:48.989Z,99341.84
2023-12-14T18:03:55.234Z,99352.41
2023-12-14T18:09:00.553Z,99325.75
2023-12-14T18:14:04.294Z,99330.00
2023-12-14T18:19:08.516Z,99333.50
2023-12-14T18:24:13.520Z,99327.63
2023-12-14T18:29:17.170Z,99305.16
2023-12-14T18:34:20.883Z,99307.78
2023-12-14T18:39:26.181Z,99300.94
2023-12-14T18:44:30.101Z,99295.91
2023-12-14T18:49:35.138Z,99291.91
2023-12-14T18:54:42.198Z,99278.38
2023-12-14T18:59:45.792Z,99276.81
2023-12-14T19:04:49.705Z,99284.06
2023-12-14T19:09:55.781Z,99280.59
2023-12-14T19:14:59.463Z,99265.00
2023-12-14T19:20:03.386Z,99259.09
2023-12-14T19:25:11.961Z,99255.81
2023-12-14T19:30:16.813Z,99218.38
2023-12-14T19:35:20.645Z,99226.69
2023-12-14T19:40:26.660Z,99223.88
2023-12-14T19:45:30.499Z,99187.38
2023-12-14T19:50:34.092Z,99198.84
2023-12-14T19:55:39.347Z,99215.06
2023-12-14T20:00:44.606Z,99183.66
2023-12-14T20:05:48.935Z,99186.59
2023-12-14T20:10:54.199Z,99183.59
2023-12-14T20:15:57.959Z,99172.38
2023-12-14T20:21:01.752Z,99154.75
2023-12-14T20:26:07.061Z,99129.22
2023-12-14T20:31:13.253Z,99145.22
2023-12-14T20:36:16.926Z,99147.25
2023-12-14T20:41:22.167Z,99114.22
2023-12-14T20:46:25.991Z,99109.75
2023-12-14T20:51:30.914Z,99106.69
2023-12-14T20:56:35.955Z,99090.66
2023-12-14T21:01:39.772Z,99051.16
2023-12-14T21:06:43.543Z,99060.34
2023-12-14T21:11:48.850Z,99041.00
2023-12-14T21:16:53.085Z,99034.66
2023-12-14T21:21:58.714Z,99024.50
2023-12-14T21:27:17.753Z,99015.53
2023-12-14T21:32:21.750Z,99006.88
2023-12-14T21:37:25.440Z,98998.16
2023-12-14T21:42:30.548Z,98978.34
2023-12-14T21:47:34.402Z,98972.34
2023-12-14T21:52:38.434Z,98948.06
2023-12-14T21:57:43.529Z,98937.16
2023-12-14T22:02:47.357Z,98926.81
2023-12-14T22:07:51.079Z,98915.69
2023-12-14T22:13:34.606Z,98899.72
2023-12-14T22:18:38.618Z,98894.75
2023-12-14T22:23:42.216Z,98868.38
2023-12-14T22:28:47.484Z,98864.84
2023-12-14T22:33:51.372Z,98853.25
2023-12-14T22:38:54.943Z,98841.22
2023-12-14T22:44:00.158Z,98848.72
2023-12-14T22:49:04.249Z,98824.38
2023-12-14T22:54:08.065Z,98842.09
2023-12-14T22:59:13.117Z,98835.63
2023-12-14T23:04:16.843Z,98836.38
2023-12-14T23:09:20.635Z,98835.03
2023-12-14T23:14:25.986Z,98822.34
2023-12-14T23:19:30.026Z,98817.88
2023-12-14T23:24:33.608Z,98807.28
2023-12-14T23:29:38.797Z,98799.53
2023-12-14T23:34:42.364Z,98793.63
2023-12-14T23:39:46.068Z,98788.72
2023-12-14T23:44:51.283Z,98777.91
2023-12-14T23:49:55.219Z,98762.44
2023-12-14T23:54:58.894Z,98771.44
